createdAt,value
2019-04-10T00:01:09.754Z,98276.08
2019-04-10T00:03:43.773Z,98275.66
2019-04-10T00:06:17.890Z,98274.30
2019-04-10T00:08:49.219Z,98281.34
2019-04-10T00:11:20.789Z,98277.37
2019-04-10T00:13:53.180Z,98276.51
2019-04-10T00:16:24.702Z,98272.11
2019-04-10T00:18:56.252Z,98281.80
2019-04-10T00:21:27.699Z,98278.69
2019-04-10T00:23:59.671Z,98288.41
2019-04-10T00:26:31.988Z,98281.80
2019-04-10T00:29:03.657Z,98286.66
2019-04-10T00:31:35.477Z,98292.38
2019-04-10T00:34:07.375Z,98295.02
2019-04-10T00:36:39.416Z,98295.88
2019-04-10T00:39:10.604Z,98298.09
2019-04-10T00:41:41.494Z,98298.56
2019-04-10T00:44:15.304Z,98302.06
2019-04-10T00:46:46.510Z,98302.06
2019-04-10T00:49:18.060Z,98303.81
2019-04-10T00:51:49.988Z,98298.09
2019-04-10T00:54:21.753Z,98302.06
2019-04-10T00:56:53.338Z,98298.98
2019-04-10T00:59:24.815Z,98302.95
2019-04-10T01:01:56.361Z,98307.34
2019-04-10T01:04:29.064Z,98305.13
2019-04-10T01:07:00.887Z,98299.42
2019-04-10T01:09:33.205Z,98295.02
2019-04-10T01:12:05.691Z,98297.66
2019-04-10T01:14:38.225Z,98298.09
2019-04-10T01:17:09.657Z,98298.52
2019-04-10T01:19:41.877Z,98301.17
2019-04-10T01:22:14.926Z,98302.06
2019-04-10T01:24:46.076Z,98305.59
2019-04-10T01:27:17.998Z,98312.64
2019-04-10T01:29:49.587Z,98306.45
2019-04-10T01:32:21.436Z,98308.20
2019-04-10T01:34:53.910Z,98302.06
2019-04-10T01:37:25.289Z,98298.56
2019-04-10T01:39:57.022Z,98297.66
2019-04-10T01:42:28.589Z,98305.56
2019-04-10T01:45:01.497Z,98296.73
2019-04-10T01:47:33.313Z,98297.62
2019-04-10T01:50:06.363Z,98295.88
2019-04-10T01:52:37.747Z,98297.67
2019-04-10T01:55:20.050Z,98299.42
2019-04-10T01:57:44.186Z,98292.34
2019-04-10T02:00:17.531Z,98304.70
2019-04-10T02:02:51.798Z,98300.73
2019-04-10T02:05:23.135Z,98296.77
2019-04-10T02:08:03.264Z,98299.42
2019-04-10T02:10:29.793Z,98297.20
2019-04-10T02:13:01.557Z,98294.55
2019-04-10T02:15:32.787Z,98295.45
2019-04-10T02:18:05.338Z,98298.98
2019-04-10T02:20:38.891Z,98302.06
2019-04-10T02:23:10.206Z,98299.41
2019-04-10T02:25:41.847Z,98294.55
2019-04-10T02:28:13.528Z,98297.62
2019-04-10T02:30:46.010Z,98296.77
2019-04-10T02:33:17.900Z,98294.13
2019-04-10T02:35:49.219Z,98296.77
2019-04-10T02:38:37.416Z,98290.59
2019-04-10T02:40:55.527Z,98298.95
2019-04-10T02:43:27.385Z,98297.62
2019-04-10T02:46:00.042Z,98298.52
2019-04-10T02:48:32.120Z,98299.84
2019-04-10T02:51:05.494Z,98294.55
2019-04-10T02:53:39.337Z,98300.27
2019-04-10T02:56:11.805Z,98305.98
2019-04-10T02:58:44.440Z,98295.88
2019-04-10T03:01:17.395Z,98303.30
2019-04-10T03:03:50.131Z,98299.34
2019-04-10T03:06:22.819Z,98302.41
2019-04-10T03:09:07.574Z,98299.77
2019-04-10T03:11:27.981Z,98304.16
2019-04-10T03:14:01.374Z,98307.23
2019-04-10T03:16:32.894Z,98304.66
2019-04-10T03:19:05.406Z,98305.95
2019-04-10T03:21:36.013Z,98301.94
2019-04-10T03:24:07.257Z,98308.97
2019-04-10T03:26:39.487Z,98313.41
2019-04-10T03:29:11.612Z,98313.88
2019-04-10T03:31:45.051Z,98305.91
2019-04-10T03:34:20.805Z,98313.40
2019-04-10T03:36:51.770Z,98318.27
2019-04-10T03:39:24.451Z,98316.05
2019-04-10T03:41:56.791Z,98320.48
2019-04-10T03:44:28.102Z,98329.69
2019-04-10T03:47:00.720Z,98323.08
2019-04-10T03:49:32.216Z,98324.87
2019-04-10T03:52:03.344Z,98326.70
2019-04-10T03:54:34.994Z,98327.09
2019-04-10T03:57:07.469Z,98326.61
2019-04-10T03:59:40.719Z,98332.80
2019-04-10T04:02:15.614Z,98333.70
2019-04-10T04:04:47.975Z,98329.34
2019-04-10T04:07:19.722Z,98334.56
2019-04-10T04:09:51.553Z,98337.20
2019-04-10T04:12:22.901Z,98338.09
2019-04-10T04:14:56.922Z,98340.31
2019-04-10T04:17:28.704Z,98341.67
2019-04-10T04:20:00.050Z,98349.14
2019-04-10T04:22:32.674Z,98350.41
2019-04-10T04:25:04.682Z,98349.56
2019-04-10T04:27:36.347Z,98354.47
2019-04-10T04:30:08.440Z,98354.05
2019-04-10T04:32:40.085Z,98359.76
2019-04-10T04:35:11.264Z,98361.00
2019-04-10T04:37:42.673Z,98357.03
2019-04-10T04:40:14.239Z,98357.12
2019-04-10T04:42:45.874Z,98364.63
2019-04-10T04:45:17.530Z,98369.02
2019-04-10T04:47:50.316Z,98370.33
2019-04-10T04:50:21.975Z,98375.19
2019-04-10T04:52:53.640Z,98372.98
2019-04-10T04:55:26.069Z,98379.59
2019-04-10T04:57:57.780Z,98381.80
2019-04-10T05:00:32.285Z,98382.66
2019-04-10T05:03:06.348Z,98390.17
2019-04-10T05:05:39.046Z,98386.67
2019-04-10T05:08:10.630Z,98395.46
2019-04-10T05:10:42.074Z,98394.13
2019-04-10T05:13:14.175Z,98395.45
2019-04-10T05:15:45.716Z,98393.70
2019-04-10T05:18:17.339Z,98387.57
2019-04-10T05:20:50.817Z,98394.62
2019-04-10T05:23:22.864Z,98396.36
2019-04-10T05:25:54.562Z,98395.92
2019-04-10T05:28:26.357Z,98388.89
2019-04-10T05:30:57.364Z,98390.22
2019-04-10T05:33:28.855Z,98395.52
2019-04-10T05:36:01.247Z,98397.68
2019-04-10T05:38:31.712Z,98399.41
2019-04-10T05:41:02.287Z,98403.39
2019-04-10T05:43:34.196Z,98405.19
2019-04-10T05:46:04.979Z,98400.80
2019-04-10T05:48:35.638Z,98405.20
2019-04-10T05:51:07.907Z,98403.38
2019-04-10T05:53:38.524Z,98404.49
2019-04-10T05:56:09.864Z,98404.33
2019-04-10T05:58:40.864Z,98412.25
2019-04-10T06:01:11.562Z,98406.58
2019-04-10T06:03:42.853Z,98405.67
2019-04-10T06:06:14.463Z,98410.22
2019-04-10T06:08:44.984Z,98408.06
2019-04-10T06:11:17.021Z,98412.52
2019-04-10T06:13:48.561Z,98408.16
2019-04-10T06:16:19.547Z,98407.82
2019-04-10T06:18:51.851Z,98416.66
2019-04-10T06:21:23.111Z,98421.48
2019-04-10T06:23:53.908Z,98423.23
2019-04-10T06:26:25.775Z,98420.63
2019-04-10T06:28:57.178Z,98427.97
2019-04-10T06:31:28.507Z,98423.70
2019-04-10T06:33:59.034Z,98425.50
2019-04-10T06:36:29.653Z,98431.65
2019-04-10T06:39:00.941Z,98436.98
2019-04-10T06:41:33.166Z,98436.98
2019-04-10T06:44:05.652Z,98447.16
2019-04-10T06:46:37.944Z,98446.73
2019-04-10T06:49:09.357Z,98441.45
2019-04-10T06:51:41.048Z,98452.92
2019-04-10T06:54:14.403Z,98445.89
2019-04-10T06:56:45.928Z,98454.73
2019-04-10T06:59:17.360Z,98452.98
2019-04-10T07:01:52.849Z,98461.36
2019-04-10T07:04:23.864Z,98461.78
2019-04-10T07:07:00.823Z,98459.59
2019-04-10T07:09:26.982Z,98462.66
2019-04-10T07:12:03.391Z,98463.45
2019-04-10T07:14:36.903Z,98466.92
2019-04-10T07:17:07.506Z,98474.67
2019-04-10T07:19:41.423Z,98475.75
2019-04-10T07:22:14.257Z,98474.73
2019-04-10T07:24:43.997Z,98472.32
2019-04-10T07:27:14.531Z,98480.52
2019-04-10T07:29:45.273Z,98480.73
2019-04-10T07:32:17.900Z,98484.33
2019-04-10T07:34:48.894Z,98483.59
2019-04-10T07:37:21.654Z,98489.83
2019-04-10T07:39:53.002Z,98491.28
2019-04-10T07:42:30.439Z,98494.34
2019-04-10T07:44:56.412Z,98490.73
2019-04-10T07:47:29.474Z,98491.63
2019-04-10T07:50:01.597Z,98491.22
2019-04-10T07:52:32.926Z,98496.08
2019-04-10T07:55:04.543Z,98493.38
2019-04-10T07:57:36.695Z,98504.01
2019-04-10T08:00:09.015Z,98506.20
2019-04-10T08:02:40.534Z,98506.61
2019-04-10T08:05:10.863Z,98505.83
2019-04-10T08:07:41.172Z,98510.24
2019-04-10T08:10:12.762Z,98511.62
2019-04-10T08:12:50.928Z,98514.33
2019-04-10T08:15:21.290Z,98518.72
2019-04-10T08:17:56.058Z,98517.27
2019-04-10T08:20:26.208Z,98514.70
2019-04-10T08:22:57.356Z,98513.86
2019-04-10T08:25:28.838Z,98519.21
2019-04-10T08:28:00.708Z,98510.92
2019-04-10T08:30:32.138Z,98511.39
2019-04-10T08:33:03.213Z,98510.50
2019-04-10T08:35:37.718Z,98507.84
2019-04-10T08:38:07.696Z,98506.52
2019-04-10T08:40:38.409Z,98511.81
2019-04-10T08:43:10.200Z,98509.64
2019-04-10T08:45:48.073Z,98513.61
2019-04-10T08:48:15.470Z,98512.72
2019-04-10T08:50:46.130Z,98507.88
2019-04-10T08:53:18.826Z,98509.67
2019-04-10T08:55:49.072Z,98504.80
2019-04-10T08:58:20.893Z,98504.80
2019-04-10T09:00:53.029Z,98506.13
2019-04-10T09:03:24.718Z,98473.48
2019-04-10T09:05:55.800Z,98512.77
2019-04-10T09:08:26.658Z,98520.28
2019-04-10T09:10:57.224Z,98525.61
2019-04-10T09:13:28.510Z,98516.79
2019-04-10T09:16:00.326Z,98521.18
2019-04-10T09:18:31.553Z,98525.16
2019-04-10T09:21:02.784Z,98524.27
2019-04-10T09:23:42.849Z,98525.62
2019-04-10T09:26:05.915Z,98524.28
2019-04-10T09:28:38.340Z,98524.33
2019-04-10T09:31:09.334Z,98523.45
2019-04-10T09:33:39.802Z,98530.06
2019-04-10T09:36:11.164Z,98523.44
2019-04-10T09:38:41.546Z,98525.20
2019-04-10T09:41:13.986Z,98528.73
2019-04-10T09:43:45.512Z,98526.06
2019-04-10T09:46:18.504Z,98523.42
2019-04-10T09:55:03.320Z,98523.80
2019-04-10T10:07:49.017Z,98535.95
2019-04-10T10:10:20.766Z,98545.48
2019-04-10T10:12:52.681Z,98539.34
2019-04-10T10:15:25.177Z,98538.00
2019-04-10T10:17:57.113Z,98542.86
2019-04-10T10:20:30.701Z,98535.80
2019-04-10T10:23:01.300Z,98541.12
2019-04-10T10:25:32.652Z,98541.12
2019-04-10T10:28:04.966Z,98533.59
2019-04-10T10:30:36.200Z,98532.70
2019-04-10T10:33:07.927Z,98538.00
2019-04-10T10:35:39.100Z,98532.70
2019-04-10T10:38:10.805Z,98532.27
2019-04-10T10:40:43.590Z,98534.92
2019-04-10T10:43:14.754Z,98534.03
2019-04-10T10:45:47.091Z,98531.84
2019-04-10T10:48:21.746Z,98531.81
2019-04-10T10:50:53.383Z,98534.50
2019-04-10T10:53:26.215Z,98528.30
2019-04-10T10:55:58.055Z,98530.08
2019-04-10T10:58:30.018Z,98532.73
2019-04-10T11:01:01.473Z,98533.14
2019-04-10T11:03:34.203Z,98530.49
2019-04-10T11:06:06.626Z,98538.01
2019-04-10T11:08:39.719Z,98531.84
2019-04-10T11:11:12.693Z,98537.58
2019-04-10T11:13:45.066Z,98534.92
2019-04-10T11:16:17.081Z,98535.36
2019-04-10T11:18:50.804Z,98534.47
2019-04-10T11:21:24.774Z,98538.00
2019-04-10T11:23:56.192Z,98534.48
2019-04-10T11:26:27.640Z,98533.16
2019-04-10T11:29:01.515Z,98531.84
2019-04-10T11:31:31.679Z,98534.48
2019-04-10T11:34:04.182Z,98531.83
2019-04-10T11:36:36.191Z,98529.17
2019-04-10T11:41:41.363Z,98528.74
2019-04-10T11:44:16.584Z,98531.39
2019-04-10T11:46:46.737Z,98531.38
2019-04-10T11:49:20.219Z,98528.73
2019-04-10T11:51:59.598Z,98524.77
2019-04-10T11:54:31.687Z,98525.66
2019-04-10T11:57:07.119Z,98526.09
2019-04-10T11:59:45.601Z,98526.96
2019-04-10T12:02:20.458Z,98522.12
2019-04-10T12:04:55.804Z,98522.97
2019-04-10T12:07:54.928Z,98516.81
2019-04-10T12:12:46.603Z,98515.92
2019-04-10T12:15:22.660Z,98511.92
2019-04-10T12:18:00.371Z,98518.11
2019-04-10T12:20:33.754Z,98513.69
2019-04-10T12:23:08.441Z,98516.34
2019-04-10T14:18:50.910Z,98243.91
2019-04-10T14:21:22.021Z,98239.04
2019-04-10T14:23:58.320Z,98241.42
2019-04-10T14:26:43.724Z,98241.73
2019-04-10T14:29:10.171Z,98245.73
2019-04-10T14:31:44.647Z,98245.61
2019-04-10T14:34:18.870Z,98245.22
2019-04-10T14:36:52.886Z,98243.94
2019-04-10T14:39:27.311Z,98248.32
2019-04-10T14:42:00.156Z,98253.09
2019-04-10T14:44:32.621Z,98253.27
2019-04-10T14:47:04.399Z,98246.39
2019-04-10T14:49:37.553Z,98246.84
2019-04-10T14:52:08.829Z,98246.65
2019-04-10T14:54:40.925Z,98253.30
2019-04-10T14:57:12.839Z,98253.43
2019-04-10T14:59:44.622Z,98258.85
2019-04-10T15:02:16.749Z,98262.09
2019-04-10T15:04:49.075Z,98265.67
2019-04-10T15:07:21.833Z,98266.26
2019-04-10T15:09:55.322Z,98272.14
2019-04-10T15:12:28.081Z,98275.42
2019-04-10T15:15:03.851Z,98275.19
2019-04-10T15:17:38.417Z,98274.47
2019-04-10T15:20:11.157Z,98273.88
2019-04-10T15:22:44.411Z,98276.11
2019-04-10T15:25:17.277Z,98282.60
2019-04-10T15:27:50.028Z,98291.09
2019-04-10T15:30:22.289Z,98283.02
2019-04-10T15:32:54.209Z,98284.59
2019-04-10T15:35:26.515Z,98283.64
2019-04-10T15:37:59.839Z,98284.23
2019-04-10T15:40:34.553Z,98286.29
2019-04-10T15:43:06.650Z,98288.45
2019-04-10T15:45:38.319Z,98289.84
2019-04-10T15:48:10.639Z,98277.91
2019-04-10T15:50:43.386Z,98279.11
2019-04-10T15:53:15.950Z,98281.40
2019-04-10T15:55:47.695Z,98281.13
2019-04-10T15:58:21.506Z,98283.57
2019-04-10T16:00:53.865Z,98283.89
2019-04-10T16:03:26.180Z,98284.30
2019-04-10T16:05:57.738Z,98281.69
2019-04-10T16:08:29.876Z,98277.48
2019-04-10T16:11:07.669Z,98275.28
2019-04-10T16:13:41.265Z,98270.58
2019-04-10T16:16:30.584Z,98270.27
2019-04-10T16:19:04.279Z,98269.89
2019-04-10T16:21:36.834Z,98267.73
2019-04-10T16:24:12.088Z,98262.55
2019-04-10T16:26:44.233Z,98261.73
2019-04-10T16:29:18.177Z,98264.92
2019-04-10T16:31:53.116Z,98266.29
2019-04-10T16:34:36.142Z,98270.23
2019-04-10T16:37:12.599Z,98265.38
2019-04-10T16:39:57.457Z,98271.85
2019-04-10T16:42:20.206Z,98280.70
2019-04-10T16:44:53.385Z,98275.12
2019-04-10T16:47:32.302Z,98272.02
2019-04-10T16:50:11.170Z,98273.33
2019-04-10T16:52:43.872Z,98276.40
2019-04-10T16:55:16.443Z,98285.06
2019-04-10T16:57:49.238Z,98282.21
2019-04-10T17:00:22.247Z,98283.16
2019-04-10T17:02:54.510Z,98293.63
2019-04-10T17:05:26.328Z,98303.72
2019-04-10T17:07:59.415Z,98302.86
2019-04-10T17:10:30.954Z,98303.30
2019-04-10T17:13:07.247Z,98312.69
2019-04-10T17:15:39.823Z,98311.38
2019-04-10T17:18:11.821Z,98311.73
2019-04-10T17:20:44.599Z,98317.45
2019-04-10T17:23:16.481Z,98320.16
2019-04-10T17:25:53.372Z,98315.45
2019-04-10T17:28:28.434Z,98322.30
2019-04-10T17:31:04.889Z,98330.09
2019-04-10T17:33:41.920Z,98330.80
2019-04-10T17:36:13.584Z,98341.72
2019-04-10T17:38:45.220Z,98340.66
2019-04-10T17:41:17.805Z,98344.08
2019-04-10T17:43:50.171Z,98349.56
2019-04-10T17:46:27.051Z,98351.66
2019-04-10T17:48:59.003Z,98356.31
2019-04-10T17:51:32.729Z,98354.90
2019-04-10T17:54:09.608Z,98359.33
2019-04-10T17:56:46.570Z,98361.17
2019-04-10T17:59:18.416Z,98371.92
2019-04-10T18:01:51.515Z,98375.82
2019-04-10T18:04:26.221Z,98371.45
2019-04-10T18:07:01.208Z,98377.06
2019-04-10T18:09:33.137Z,98379.03
2019-04-10T18:12:08.017Z,98387.34
2019-04-10T18:14:42.602Z,98381.33
2019-04-10T18:17:18.590Z,98383.31
2019-04-10T18:19:52.478Z,98388.98
2019-04-10T18:22:24.737Z,98383.72
2019-04-10T18:24:58.357Z,98383.02
2019-04-10T18:27:30.419Z,98387.31
2019-04-10T18:30:06.148Z,98386.50
2019-04-10T18:32:43.611Z,98388.50
2019-04-10T18:35:22.542Z,98391.70
2019-04-10T18:38:03.515Z,98394.08
2019-04-10T18:40:52.140Z,98397.63
2019-04-10T18:43:16.048Z,98401.77
2019-04-10T18:45:57.487Z,98403.42
2019-04-10T18:48:28.217Z,98402.06
2019-04-10T18:51:10.860Z,98409.78
2019-04-10T18:53:46.280Z,98411.75
2019-04-10T18:56:21.523Z,98409.55
2019-04-10T18:59:02.683Z,98410.50
2019-04-10T19:01:47.356Z,98413.84
2019-04-10T19:04:24.450Z,98414.93
2019-04-10T19:07:02.794Z,98417.36
2019-04-10T19:09:39.055Z,98417.38
2019-04-10T19:12:12.803Z,98422.00
2019-04-10T19:14:44.820Z,98423.88
2019-04-10T19:17:20.831Z,98415.59
2019-04-10T19:19:52.674Z,98418.55
2019-04-10T19:22:24.413Z,98415.87
2019-04-10T19:25:02.962Z,98413.68
2019-04-10T19:27:38.582Z,98412.83
2019-04-10T19:30:33.813Z,98416.33
2019-04-10T19:33:06.562Z,98411.86
2019-04-10T19:35:39.263Z,98411.12
2019-04-10T19:38:13.506Z,98411.30
2019-04-10T19:40:45.894Z,98405.02
2019-04-10T19:43:19.121Z,98405.47
2019-04-10T19:45:52.299Z,98402.51
2019-04-10T19:48:25.485Z,98397.54
2019-04-10T19:51:01.327Z,98396.97
2019-04-10T19:53:35.310Z,98403.77
2019-04-10T19:56:06.632Z,98394.48
2019-04-10T19:58:38.506Z,98398.63
2019-04-10T20:01:11.461Z,98400.87
2019-04-10T20:03:45.943Z,98409.38
2019-04-10T20:06:18.453Z,98414.13
2019-04-10T20:08:52.780Z,98418.43
2019-04-10T20:11:35.659Z,98419.33
2019-04-10T20:14:00.054Z,98423.14
2019-04-10T20:16:35.361Z,98417.03
2019-04-10T20:19:07.528Z,98420.36
2019-04-10T20:21:39.749Z,98422.56
2019-04-10T20:24:12.362Z,98424.42
2019-04-10T20:26:43.526Z,98428.79
2019-04-10T20:29:15.190Z,98428.11
2019-04-10T20:31:47.817Z,98431.61
2019-04-10T20:34:19.469Z,98429.11
2019-04-10T20:36:51.186Z,98429.91
2019-04-10T20:39:25.283Z,98430.19
2019-04-10T20:41:59.332Z,98433.30
2019-04-10T20:44:30.294Z,98433.91
2019-04-10T20:47:02.533Z,98428.36
2019-04-10T20:49:35.015Z,98430.34
2019-04-10T20:52:08.278Z,98425.02
2019-04-10T20:54:39.563Z,98429.88
2019-04-10T20:57:13.016Z,98434.96
2019-04-10T20:59:44.678Z,98440.08
2019-04-10T21:02:18.821Z,98431.59
2019-04-10T21:04:56.614Z,98430.75
2019-04-10T21:07:25.971Z,98438.68
2019-04-10T21:09:57.022Z,98440.48
2019-04-10T21:12:30.118Z,98434.94
2019-04-10T21:15:01.490Z,98435.12
2019-04-10T21:17:34.091Z,98431.37
2019-04-10T21:20:07.854Z,98437.72
2019-04-10T21:22:39.080Z,98437.59
2019-04-10T21:25:11.430Z,98432.52
2019-04-10T21:27:44.103Z,98440.32
2019-04-10T21:30:32.660Z,98435.06
2019-04-10T21:33:05.928Z,98429.84
2019-04-10T21:35:43.746Z,98435.70
2019-04-10T21:38:15.251Z,98435.55
2019-04-10T21:40:47.454Z,98430.09
2019-04-10T21:43:20.297Z,98432.09
2019-04-10T21:45:52.091Z,98426.22
2019-04-10T21:48:24.586Z,98426.23
2019-04-10T21:50:55.281Z,98427.41
2019-04-10T21:53:26.548Z,98434.09
2019-04-10T21:55:57.775Z,98437.38
2019-04-10T21:58:30.426Z,98435.22
2019-04-10T22:01:03.522Z,98432.89
2019-04-10T22:03:36.346Z,98442.33
2019-04-10T22:06:23.950Z,98438.77
2019-04-10T22:09:04.109Z,98433.09
2019-04-10T22:11:37.221Z,98432.52
2019-04-10T22:14:08.862Z,98438.56
2019-04-10T22:16:40.203Z,98433.23
2019-04-10T22:19:12.216Z,98432.85
2019-04-10T22:21:44.048Z,98430.05
2019-04-10T22:24:15.843Z,98435.97
2019-04-10T22:26:47.485Z,98428.57
2019-04-10T22:29:19.568Z,98429.09
2019-04-10T22:31:51.337Z,98425.04
2019-04-10T22:34:22.729Z,98428.30
2019-04-10T22:36:53.869Z,98425.73
2019-04-10T22:39:25.663Z,98428.34
2019-04-10T22:41:57.074Z,98427.04
2019-04-10T22:44:36.646Z,98419.11
2019-04-10T22:47:03.006Z,98412.80
2019-04-10T22:49:34.968Z,98415.08
2019-04-10T22:52:06.822Z,98408.78
2019-04-10T22:54:38.826Z,98410.91
2019-04-10T22:57:10.496Z,98413.57
2019-04-10T22:59:42.573Z,98400.84
2019-04-10T23:02:15.041Z,98400.23
2019-04-10T23:04:47.512Z,98395.70
2019-04-10T23:07:19.873Z,98393.75
2019-04-10T23:09:54.834Z,98400.09
2019-04-10T23:12:26.534Z,98398.15
2019-04-10T23:14:58.739Z,98407.63
2019-04-10T23:17:30.081Z,98414.12
2019-04-10T23:20:02.762Z,98413.22
2019-04-10T23:22:33.883Z,98412.85
2019-04-10T23:25:07.873Z,98415.92
2019-04-10T23:27:38.868Z,98417.29
2019-04-10T23:30:12.857Z,98415.92
2019-04-10T23:32:44.310Z,98419.88
2019-04-10T23:35:15.357Z,98409.50
2019-04-10T23:37:46.984Z,98407.37
2019-04-10T23:40:18.896Z,98404.64
2019-04-10T23:43:02.649Z,98406.11
2019-04-10T23:45:23.868Z,98401.25
2019-04-10T23:47:56.176Z,98398.41
2019-04-10T23:50:28.117Z,98408.56
2019-04-10T23:53:00.324Z,98407.20
2019-04-10T23:55:32.257Z,98407.41
2019-04-10T23:58:03.321Z,98404.17
